Time;durP1;ratioP1;P1;durP2;ratioP2;P2;SDS_P1;SDS_P2;PMS_P1;PMS_P2;Temp;Humidity;BMP_temperature;BMP_pressure;BME280_temperature;BME280_humidity;BME280_pressure;Samples;Min_cycle;Max_cycle;Signal;HPM_P1;HPM_P2
2021/10/29 00:02:20;;;;;;;;;;;;;;;13.09;58.10;99083.88;5017157;28;19917;-76
2021/10/29 00:04:45;;;;;;;;;;;;;;;13.07;57.94;99073.41;5021213;28;19925;-77
2021/10/29 00:07:10;;;;;;;;;;;;;;;13.05;58.30;99075.31;5040448;28;19932;-76
2021/10/29 00:09:36;;;;;;;;;;;;;;;13.01;57.99;99073.00;5019898;28;20371;-77
2021/10/29 00:12:02;;;;;;;;;;;;;;;13.00;58.21;99068.66;5039945;28;19917;-77
2021/10/29 00:14:31;;;;;;;;;;;;;;;12.98;58.62;99070.56;5036618;28;19926;-77
2021/10/29 00:16:56;;;;;;;;;;;;;;;12.94;58.62;99071.72;5035654;28;19951;-77
2021/10/29 00:19:22;;;;;;;;;;;;;;;12.97;58.72;99074.16;5020104;28;20301;-76
2021/10/29 00:21:47;;;;;;;;;;;;;;;12.96;58.66;99070.66;5016932;28;19917;-77
2021/10/29 00:24:12;;;;;;;;;;;;;;;12.94;58.94;99072.56;5019119;28;19952;-77
2021/10/29 00:26:37;;;;;;;;;;;;;;;12.94;58.36;99082.31;5033484;28;19940;-77
2021/10/29 00:29:02;;;;;;;;;;;;;;;12.95;58.36;99084.03;5014619;28;19917;-76
2021/10/29 00:31:28;;;;;;;;;;;;;;;12.93;58.55;99081.47;5029647;28;19917;-76
2021/10/29 00:33:54;;;;;;;;;;;;;;;12.94;58.01;99075.22;5030075;28;20412;-76
2021/10/29 00:36:20;;;;;;;;;;;;;;;12.93;58.41;99081.47;5031068;28;20391;-75
2021/10/29 00:38:45;;;;;;;;;;;;;;;12.89;58.34;99072.06;5029313;28;20312;-77
2021/10/29 00:41:10;;;;;;;;;;;;;;;12.87;58.56;99071.31;5020571;28;19921;-76
2021/10/29 00:43:38;;;;;;;;;;;;;;;12.85;58.83;99067.94;5040648;28;20003;-76
2021/10/29 00:46:03;;;;;;;;;;;;;;;12.83;58.85;99070.69;5038786;28;19944;-76
2021/10/29 00:48:29;;;;;;;;;;;;;;;12.86;58.60;99065.19;5048719;28;19940;-77
2021/10/29 00:50:55;;;;;;;;;;;;;;;12.88;58.56;99073.03;5024827;28;19925;-77
2021/10/29 00:53:20;;;;;;;;;;;;;;;12.92;58.63;99065.69;5036613;28;19917;-77
2021/10/29 00:55:46;;;;;;;;;;;;;;;12.89;59.16;99064.13;5035532;28;20370;-77
2021/10/29 00:58:14;;;;;;;;;;;;;;;12.89;59.01;99067.59;5018220;28;19960;-77
2021/10/29 01:00:42;;;;;;;;;;;;;;;12.91;58.38;99062.22;4989339;28;20408;-76
2021/10/29 01:03:07;;;;;;;;;;;;;;;12.92;59.18;99058.63;5030881;28;20300;-76
2021/10/29 01:05:32;;;;;;;;;;;;;;;12.93;58.41;99055.03;5030231;28;20008;-76
2021/10/29 01:07:59;;;;;;;;;;;;;;;12.94;58.21;99062.00;5031843;28;19924;-77
2021/10/29 01:10:27;;;;;;;;;;;;;;;12.94;58.65;99072.56;5031632;28;19979;-77
2021/10/29 01:12:52;;;;;;;;;;;;;;;12.95;59.10;99062.88;5034412;28;19957;-76
2021/10/29 01:15:17;;;;;;;;;;;;;;;12.99;58.86;99059.03;5015062;28;19951;-76
2021/10/29 01:17:43;;;;;;;;;;;;;;;12.97;58.29;99048.56;5030607;28;19943;-76
2021/10/29 01:20:08;;;;;;;;;;;;;;;12.98;59.10;99046.75;5034469;28;19997;-77
2021/10/29 01:22:34;;;;;;;;;;;;;;;12.99;58.57;99054.56;5034613;28;20445;-77
2021/10/29 01:24:59;;;;;;;;;;;;;;;13.02;58.53;99054.38;5034686;28;19921;-76
2021/10/29 01:27:24;;;;;;;;;;;;;;;13.00;58.96;99051.00;5032458;28;19917;-76
2021/10/29 01:29:50;;;;;;;;;;;;;;;12.98;58.86;99044.13;5015763;28;19923;-78
2021/10/29 01:32:15;;;;;;;;;;;;;;;12.97;59.21;99045.91;5030413;28;20008;-77
2021/10/29 01:34:42;;;;;;;;;;;;;;;12.98;58.65;99046.75;5032530;28;20008;-77
2021/10/29 01:37:08;;;;;;;;;;;;;;;12.97;59.02;99038.00;5031125;28;19924;-76
2021/10/29 01:39:34;;;;;;;;;;;;;;;13.00;58.88;99045.69;5031507;28;19917;-77
2021/10/29 01:41:59;;;;;;;;;;;;;;;13.03;58.82;99028.75;5030221;28;19928;-75
2021/10/29 01:44:24;;;;;;;;;;;;;;;13.03;58.96;99031.41;5033124;28;19948;-75
2021/10/29 01:46:49;;;;;;;;;;;;;;;13.03;59.06;99029.59;5033019;28;19952;-75
2021/10/29 01:49:15;;;;;;;;;;;;;;;13.05;58.85;99024.19;5031301;28;19963;-76
2021/10/29 01:51:40;;;;;;;;;;;;;;;13.06;59.17;99024.06;5032267;28;19917;-76
2021/10/29 01:54:06;;;;;;;;;;;;;;;13.05;58.80;99019.75;5032389;28;19917;-76
2021/10/29 01:56:31;;;;;;;;;;;;;;;13.06;59.07;99020.59;5032555;28;19917;-77
2021/10/29 01:58:56;;;;;;;;;;;;;;;13.05;59.04;99003.03;5016155;28;20015;-76
2021/10/29 02:01:22;;;;;;;;;;;;;;;13.06;58.76;99008.19;5052967;28;20292;-76
2021/10/29 02:03:48;;;;;;;;;;;;;;;13.06;58.43;99002.06;5055054;28;20046;-77
2021/10/29 02:06:13;;;;;;;;;;;;;;;13.07;58.82;99007.25;5037802;28;19986;-77
2021/10/29 02:08:39;;;;;;;;;;;;;;;13.08;58.90;99005.44;5054938;28;19917;-76
2021/10/29 02:11:04;;;;;;;;;;;;;;;13.09;58.98;99008.00;5053027;28;19925;-77
2021/10/29 02:13:29;;;;;;;;;;;;;;;13.07;58.61;99009.06;5054198;28;19956;-76
2021/10/29 02:15:55;;;;;;;;;;;;;;;13.09;58.63;98997.41;5033632;28;19956;-76
2021/10/29 02:18:20;;;;;;;;;;;;;;;13.09;58.85;99004.47;5051374;28;19948;-76
2021/10/29 02:20:45;;;;;;;;;;;;;;;13.09;58.93;98999.19;5032653;28;19921;-76
2021/10/29 02:23:12;;;;;;;;;;;;;;;13.11;59.16;98984.06;5032876;28;20108;-76
2021/10/29 02:25:43;;;;;;;;;;;;;;;13.15;58.55;98985.53;5032598;28;19921;-76
2021/10/29 02:28:08;;;;;;;;;;;;;;;13.11;58.60;98981.41;5050510;28;19927;-75
2021/10/29 02:30:33;;;;;;;;;;;;;;;13.08;59.11;98971.06;5032506;28;20004;-75
2021/10/29 02:32:59;;;;;;;;;;;;;;;13.07;58.76;98978.16;5050844;28;20408;-76
2021/10/29 02:35:24;;;;;;;;;;;;;;;13.08;58.76;98963.94;5034350;28;20330;-76
2021/10/29 02:37:49;;;;;;;;;;;;;;;13.07;59.07;98967.56;5052000;28;20419;-77
2021/10/29 02:40:15;;;;;;;;;;;;;;;13.07;58.91;98962.28;5033023;28;19924;-76
2021/10/29 02:42:40;;;;;;;;;;;;;;;13.08;59.02;98960.47;5035702;28;19964;-75
2021/10/29 02:45:06;;;;;;;;;;;;;;;13.05;58.29;98950.94;5037837;28;19924;-76
2021/10/29 02:47:31;;;;;;;;;;;;;;;13.06;58.78;98952.63;5034468;28;19917;-76
2021/10/29 02:49:56;;;;;;;;;;;;;;;13.04;58.74;98946.63;5051083;28;19924;-76
2021/10/29 02:52:22;;;;;;;;;;;;;;;13.00;58.75;98944.31;5051059;28;19932;-76
2021/10/29 02:54:47;;;;;;;;;;;;;;;13.01;59.21;98943.34;5050567;28;20360;-76
2021/10/29 02:57:12;;;;;;;;;;;;;;;13.01;58.97;98941.53;5051711;28;20387;-76
2021/10/29 02:59:37;;;;;;;;;;;;;;;13.03;58.51;98936.97;5053242;28;20376;-75
2021/10/29 03:02:03;;;;;;;;;;;;;;;13.05;59.28;98934.25;5034419;28;20282;-76
2021/10/29 03:04:29;;;;;;;;;;;;;;;13.07;58.46;98941.09;5051595;28;20007;-76
2021/10/29 03:06:54;;;;;;;;;;;;;;;13.12;58.71;98935.47;5055383;28;19921;-77
2021/10/29 03:09:20;;;;;;;;;;;;;;;13.10;58.73;98927.63;5054472;28;19963;-77
2021/10/29 03:11:45;;;;;;;;;;;;;;;13.09;58.47;98933.91;5053291;28;19925;-78
2021/10/29 03:14:11;;;;;;;;;;;;;;;13.50;61.58;98937.09;5033634;28;20368;-61
2021/10/29 03:16:36;;;;;;;;;;;;;;;13.91;57.05;98920.72;5031153;28;19923;-62
2021/10/29 03:19:01;;;;;;;;;;;;;;;14.05;57.76;98932.06;5048729;28;19917;-61
2021/10/29 03:21:26;;;;;;;;;;;;;;;14.28;56.48;98936.44;5049463;28;20589;-62
2021/10/29 03:23:51;;;;;;;;;;;;;;;14.13;56.20;98921.72;5050362;28;19984;-74
2021/10/29 03:26:17;;;;;;;;;;;;;;;13.79;56.84;98929.63;5050539;28;19917;-75
2021/10/29 03:28:42;;;;;;;;;;;;;;;13.61;57.35;98926.56;5048914;28;19921;-75
2021/10/29 03:31:07;;;;;;;;;;;;;;;13.50;57.59;98918.56;5048940;28;19923;-73
2021/10/29 03:33:37;;;;;;;;;;;;;;;13.45;57.89;98918.91;5044934;28;19921;-74
2021/10/29 03:36:03;;;;;;;;;;;;;;;13.42;58.26;98920.97;5031937;28;19917;-74
2021/10/29 03:38:46;;;;;;;;;;;;;;;13.37;58.23;98915.16;5049300;28;19924;-74
2021/10/29 03:41:15;;;;;;;;;;;;;;;13.26;58.52;98924.69;5048941;28;20372;-73
2021/10/29 03:43:50;;;;;;;;;;;;;;;13.22;58.50;98915.31;5049134;28;19983;-74
2021/10/29 03:46:21;;;;;;;;;;;;;;;13.22;58.45;98898.59;5049489;28;19933;-74
2021/10/29 03:51:43;;;;;;;;;;;;;;;13.22;58.92;98896.78;5048097;28;19917;-74
2021/10/29 03:56:53;;;;;;;;;;;;;;;13.22;58.49;98901.25;5029753;28;19952;-75
2021/10/29 03:59:18;;;;;;;;;;;;;;;13.21;58.42;98894.25;5029319;28;20384;-74
2021/10/29 04:01:44;;;;;;;;;;;;;;;13.16;59.08;98896.38;5027450;28;19921;-74
2021/10/29 04:04:09;;;;;;;;;;;;;;;13.18;58.52;98897.13;5011741;28;20004;-75
2021/10/29 04:06:34;;;;;;;;;;;;;;;13.16;59.20;98891.94;5031267;28;20015;-75
2021/10/29 04:09:00;;;;;;;;;;;;;;;13.16;58.66;98899.88;5029508;28;20346;-75
2021/10/29 04:11:26;;;;;;;;;;;;;;;13.13;58.97;98908.03;5028273;28;19980;-75
2021/10/29 04:13:51;;;;;;;;;;;;;;;13.08;58.63;98905.72;5033394;28;20304;-75
2021/10/29 04:16:17;;;;;;;;;;;;;;;13.05;59.27;98898.03;5049814;28;19917;-74
2021/10/29 04:18:43;;;;;;;;;;;;;;;13.04;59.17;98891.06;5049386;28;19968;-74
2021/10/29 04:21:08;;;;;;;;;;;;;;;13.02;59.95;98902.69;5040982;28;19924;-74
2021/10/29 04:23:33;;;;;;;;;;;;;;;12.99;59.78;98889.69;5031373;28;20387;-75
2021/10/29 04:25:59;;;;;;;;;;;;;;;12.96;59.90;98888.13;5049702;28;19943;-75
2021/10/29 04:28:25;;;;;;;;;;;;;;;12.94;59.81;98894.47;5031422;28;19974;-75
2021/10/29 04:30:52;;;;;;;;;;;;;;;12.91;60.17;98897.34;5048206;28;19981;-75
2021/10/29 04:33:17;;;;;;;;;;;;;;;12.89;60.18;98903.59;5048211;28;19917;-75
2021/10/29 04:35:46;;;;;;;;;;;;;;;12.83;60.30;98906.69;5048584;28;19974;-75
2021/10/29 04:38:12;;;;;;;;;;;;;;;12.77;60.53;98898.34;5049553;28;19929;-74
2021/10/29 04:40:38;;;;;;;;;;;;;;;12.74;60.57;98895.94;5049094;28;20292;-74
2021/10/29 04:43:05;;;;;;;;;;;;;;;12.70;60.68;98897.97;5030720;28;19971;-73
2021/10/29 04:45:31;;;;;;;;;;;;;;;12.66;61.01;98886.75;5048686;28;19917;-74
2021/10/29 04:47:56;;;;;;;;;;;;;;;12.65;60.95;98900.94;5030654;28;19940;-74
2021/10/29 04:50:21;;;;;;;;;;;;;;;12.64;60.82;98899.22;5048622;28;19921;-74
2021/10/29 04:52:47;;;;;;;;;;;;;;;12.60;60.98;98897.78;5048279;28;19921;-74
2021/10/29 04:55:12;;;;;;;;;;;;;;;12.59;61.17;98892.59;5048424;28;20003;-74
2021/10/29 04:57:38;;;;;;;;;;;;;;;12.58;61.23;98888.28;5047924;28;19924;-74
2021/10/29 05:00:05;;;;;;;;;;;;;;;12.54;60.98;98885.00;5030920;28;19925;-74
2021/10/29 05:02:30;;;;;;;;;;;;;;;12.53;61.28;98893.88;5049073;28;19920;-74
2021/10/29 05:04:56;;;;;;;;;;;;;;;12.56;61.38;98890.19;5049187;28;20325;-74
2021/10/29 05:07:21;;;;;;;;;;;;;;;12.55;61.56;98889.34;5048736;28;19921;-74
2021/10/29 05:09:46;;;;;;;;;;;;;;;12.56;61.53;98885.72;5048596;28;19920;-76
2021/10/29 05:12:11;;;;;;;;;;;;;;;12.57;61.86;98883.91;5048683;28;20278;-74
2021/10/29 05:14:37;;;;;;;;;;;;;;;12.56;61.30;98891.03;5048196;28;19970;-74
2021/10/29 05:17:02;;;;;;;;;;;;;;;12.56;61.81;98885.72;5049144;28;19970;-74
2021/10/29 05:19:27;;;;;;;;;;;;;;;12.53;61.33;98885.97;5049375;28;19917;-73
2021/10/29 05:21:52;;;;;;;;;;;;;;;12.53;61.63;98883.31;5048874;28;19917;-73
2021/10/29 05:24:18;;;;;;;;;;;;;;;12.52;61.97;98873.69;5048259;28;19921;-73
2021/10/29 05:26:43;;;;;;;;;;;;;;;12.49;61.45;98883.63;5051916;28;19917;-75
2021/10/29 05:29:09;;;;;;;;;;;;;;;12.48;62.05;98872.22;5051268;28;19917;-75
2021/10/29 05:31:34;;;;;;;;;;;;;;;12.49;61.82;98873.06;5033827;28;19928;-75
2021/10/29 05:34:00;;;;;;;;;;;;;;;12.52;61.86;98870.19;5051975;28;19921;-75
2021/10/29 05:36:25;;;;;;;;;;;;;;;12.52;61.76;98878.13;5052465;28;19967;-74
2021/10/29 05:38:50;;;;;;;;;;;;;;;12.52;61.68;98871.03;5051793;28;19921;-74
2021/10/29 05:41:16;;;;;;;;;;;;;;;12.49;61.28;98875.72;5048263;28;19935;-74
2021/10/29 05:43:41;;;;;;;;;;;;;;;12.51;61.26;98873.81;5032411;28;19922;-75
2021/10/29 05:46:06;;;;;;;;;;;;;;;12.52;61.51;98872.84;5014301;28;20377;-76
2021/10/29 05:48:32;;;;;;;;;;;;;;;12.50;61.29;98875.56;5032212;28;20285;-75
2021/10/29 05:50:59;;;;;;;;;;;;;;;12.48;61.09;98869.59;5031081;28;19924;-76
2021/10/29 05:55:55;;;;;;;;;;;;;;;12.49;61.67;98870.41;5042951;28;19939;-75
2021/10/29 05:58:20;;;;;;;;;;;;;;;12.48;61.73;98869.59;5056340;28;19917;-75
2021/10/29 06:00:45;;;;;;;;;;;;;;;12.44;61.40;98868.09;5034014;28;19925;-75
2021/10/29 06:03:11;;;;;;;;;;;;;;;12.44;61.56;98865.47;5051617;28;19917;-75
2021/10/29 06:05:36;;;;;;;;;;;;;;;12.43;61.41;98869.06;5051622;28;20392;-74
2021/10/29 06:08:01;;;;;;;;;;;;;;;12.40;61.03;98862.22;5051775;28;19917;-75
2021/10/29 06:10:27;;;;;;;;;;;;;;;12.42;61.69;98862.91;5050344;28;19920;-74
2021/10/29 06:12:52;;;;;;;;;;;;;;;12.41;61.36;98870.97;5051288;28;19926;-76
2021/10/29 06:15:19;;;;;;;;;;;;;;;12.40;61.84;98866.63;5051692;28;19960;-74
2021/10/29 06:17:44;;;;;;;;;;;;;;;12.38;61.25;98861.47;5051443;28;20003;-74
2021/10/29 06:20:11;;;;;;;;;;;;;;;12.36;61.50;98867.81;5051204;28;19981;-75
2021/10/29 06:22:55;;;;;;;;;;;;;;;12.34;61.26;98862.63;5033112;28;20004;-75
2021/10/29 06:25:22;;;;;;;;;;;;;;;12.31;61.80;98865.50;5051354;28;20383;-75
2021/10/29 06:30:35;;;;;;;;;;;;;;;12.26;61.96;98862.34;5051409;28;19978;-75
2021/10/29 06:33:00;;;;;;;;;;;;;;;12.24;61.68;98854.50;5052030;28;19939;-76
2021/10/29 06:35:26;;;;;;;;;;;;;;;12.22;61.60;98851.13;5049595;28;20357;-75
2021/10/29 06:37:51;;;;;;;;;;;;;;;12.21;62.30;98857.38;5047615;28;19920;-74
2021/10/29 06:40:17;;;;;;;;;;;;;;;12.21;62.03;98853.91;5043259;28;20308;-75
2021/10/29 06:42:50;;;;;;;;;;;;;;;12.20;62.28;98853.03;5025380;28;19964;-75
2021/10/29 07:04:32;;;;;;;;;;;;;;;12.18;62.28;98847.03;5041905;28;19921;-75
2021/10/29 07:39:56;;;;;;;;;;;;;;;12.33;61.76;98836.28;5050428;28;20296;-76
2021/10/29 07:42:56;;;;;;;;;;;;;;;13.00;59.51;98844.63;4997606;28;19975;-71
2021/10/29 07:45:22;;;;;;;;;;;;;;;13.09;59.25;98845.72;5047054;28;19956;-72
2021/10/29 07:47:48;;;;;;;;;;;;;;;13.19;59.93;98844.09;5029630;28;19916;-72
2021/10/29 07:50:14;;;;;;;;;;;;;;;13.29;58.78;98847.75;5047258;28;19917;-71
2021/10/29 07:52:40;;;;;;;;;;;;;;;13.38;59.23;98850.66;5048319;28;19996;-71
2021/10/29 07:55:07;;;;;;;;;;;;;;;13.48;59.03;98846.34;5025060;28;21435;-71
2021/10/29 07:57:32;;;;;;;;;;;;;;;13.55;58.46;98844.91;5038712;28;19940;-71
2021/10/29 07:59:57;;;;;;;;;;;;;;;13.63;58.32;98852.28;5043029;28;20376;-71
2021/10/29 08:02:23;;;;;;;;;;;;;;;13.68;58.15;98842.16;5039837;28;19966;-71
2021/10/29 08:04:48;;;;;;;;;;;;;;;13.78;58.46;98844.94;5035590;28;21977;-71
2021/10/29 08:07:14;;;;;;;;;;;;;;;13.85;57.83;98841.69;5025530;28;19933;-72
2021/10/29 08:09:40;;;;;;;;;;;;;;;13.88;57.82;98840.63;5049648;28;19921;-70
2021/10/29 08:12:05;;;;;;;;;;;;;;;13.95;57.56;98844.47;5034618;28;19929;-70
2021/10/29 08:14:31;;;;;;;;;;;;;;;14.01;57.45;98827.28;5029497;28;20006;-72
2021/10/29 08:16:56;;;;;;;;;;;;;;;14.08;57.16;98825.81;5037288;28;20015;-70
2021/10/29 08:19:27;;;;;;;;;;;;;;;14.10;56.97;98832.69;5048717;28;19967;-72
2021/10/29 08:21:52;;;;;;;;;;;;;;;14.21;56.58;98825.69;5048399;28;19921;-71
2021/10/29 08:24:18;;;;;;;;;;;;;;;14.34;56.54;98821.91;5038953;28;20281;-71
2021/10/29 08:26:43;;;;;;;;;;;;;;;14.44;56.26;98824.66;5027662;28;19930;-70
2021/10/29 08:29:09;;;;;;;;;;;;;;;14.52;55.90;98819.63;5031757;28;19921;-74
2021/10/29 08:31:34;;;;;;;;;;;;;;;14.54;56.01;98822.16;5042465;28;19920;-73
2021/10/29 08:34:01;;;;;;;;;;;;;;;14.62;55.43;98824.19;5042081;28;20380;-74
2021/10/29 08:36:26;;;;;;;;;;;;;;;14.64;55.71;98830.22;5043394;28;19921;-72
2021/10/29 08:38:51;;;;;;;;;;;;;;;14.74;55.36;98823.19;5042227;28;19974;-74
2021/10/29 08:41:17;;;;;;;;;;;;;;;14.85;55.03;98822.31;5042549;28;19921;-73
2021/10/29 08:43:42;;;;;;;;;;;;;;;15.10;54.38;98816.66;5026502;28;19991;-73
2021/10/29 08:46:07;;;;;;;;;;;;;;;15.25;54.13;98819.81;5016011;28;19990;-72
2021/10/29 08:48:36;;;;;;;;;;;;;;;15.55;53.36;98821.69;5024526;28;19921;-71
2021/10/29 08:51:02;;;;;;;;;;;;;;;15.93;52.27;98822.09;5024728;28;19936;-72
2021/10/29 08:53:27;;;;;;;;;;;;;;;16.66;50.67;98804.94;5031892;28;20343;-71
2021/10/29 08:55:52;;;;;;;;;;;;;;;17.87;47.35;98803.56;5023180;28;20431;-77
2021/10/29 08:58:19;;;;;;;;;;;;;;;18.89;45.10;98797.25;5018000;28;19928;-76
2021/10/29 09:00:45;;;;;;;;;;;;;;;19.57;43.45;98790.44;5038658;28;19929;-77
2021/10/29 09:04:01;;;;;;;;;;;;;;;20.21;41.41;98786.44;5029828;28;19999;-76
2021/10/29 09:06:38;;;;;;;;;;;;;;;20.62;40.81;98789.25;5019198;28;19930;-77
2021/10/29 09:17:47;;;;;;;;;;;;;;;21.68;38.01;98792.97;5042977;28;19928;-78
2021/10/29 09:31:27;;;;;;;;;;;;;;;22.40;36.79;98772.25;5058951;28;19970;-78
2021/10/29 09:33:54;;;;;;;;;;;;;;;22.36;36.61;98760.19;5038272;28;19988;-77
2021/10/29 09:36:23;;;;;;;;;;;;;;;22.34;36.90;98762.22;5051264;28;19948;-76
2021/10/29 09:38:56;;;;;;;;;;;;;;;22.48;36.73;98768.69;5037259;28;19924;-76
2021/10/29 09:41:22;;;;;;;;;;;;;;;22.64;36.02;98767.75;5032032;28;20071;-76
2021/10/29 09:43:50;;;;;;;;;;;;;;;23.05;35.33;98762.09;5034323;28;19979;-77
2021/10/29 09:46:27;;;;;;;;;;;;;;;23.06;35.27;98748.50;5017851;28;19917;-77
2021/10/29 09:48:56;;;;;;;;;;;;;;;22.79;35.59;98751.69;5046032;28;19931;-76
2021/10/29 09:51:28;;;;;;;;;;;;;;;22.59;36.01;98749.47;5024318;28;19921;-78
2021/10/29 09:58:54;;;;;;;;;;;;;;;21.68;37.54;98750.03;5040230;28;19925;-77
2021/10/29 10:01:19;;;;;;;;;;;;;;;22.08;37.10;98755.28;5020088;28;20264;-78
2021/10/29 10:03:46;;;;;;;;;;;;;;;22.21;36.74;98754.72;5017142;28;19929;-77
2021/10/29 10:06:12;;;;;;;;;;;;;;;22.35;36.29;98755.84;5038891;28;19992;-78
2021/10/29 10:08:38;;;;;;;;;;;;;;;22.32;36.30;98758.84;5047480;28;19921;-77
2021/10/29 10:11:04;;;;;;;;;;;;;;;22.09;36.89;98751.56;5039362;28;20325;-76
2021/10/29 10:13:31;;;;;;;;;;;;;;;21.49;38.23;98752.09;5042624;28;19978;-76
2021/10/29 10:15:59;;;;;;;;;;;;;;;21.52;38.25;98749.06;5043908;28;19929;-75
2021/10/29 10:18:25;;;;;;;;;;;;;;;21.40;38.44;98750.44;5047039;28;20332;-76
2021/10/29 10:20:52;;;;;;;;;;;;;;;21.31;38.83;98743.38;5047130;28;19924;-75
2021/10/29 10:23:24;;;;;;;;;;;;;;;21.18;38.96;98743.91;5045027;28;20015;-76
2021/10/29 10:43:06;;;;;;;;;;;;;;;19.74;42.23;98728.06;5045580;28;19927;-77
2021/10/29 10:48:08;;;;;;;;;;;;;;;19.35;42.92;98715.13;5049169;28;19920;-78
2021/10/29 10:50:38;;;;;;;;;;;;;;;19.33;43.06;98711.75;5027493;28;19921;-79
2021/10/29 10:53:16;;;;;;;;;;;;;;;19.33;43.07;98711.75;5025614;28;19960;-76
2021/10/29 10:56:07;;;;;;;;;;;;;;;19.28;42.83;98709.56;5024823;28;19928;-77
2021/10/29 11:06:51;;;;;;;;;;;;;;;18.90;44.06;98716.13;5026192;28;19925;-78
2021/10/29 11:09:56;;;;;;;;;;;;;;;18.87;43.77;98714.59;5007913;28;19953;-77
2021/10/29 11:12:45;;;;;;;;;;;;;;;18.77;43.94;98719.19;5023623;28;19925;-75
2021/10/29 11:15:16;;;;;;;;;;;;;;;18.91;44.15;98719.66;5006830;28;19928;-76
2021/10/29 11:17:48;;;;;;;;;;;;;;;18.96;44.08;98714.69;5024816;28;20008;-76
2021/10/29 11:20:34;;;;;;;;;;;;;;;18.74;44.01;98722.13;5014962;28;19921;-76
2021/10/29 11:23:05;;;;;;;;;;;;;;;18.79;44.43;98713.69;4995287;28;19971;-77
2021/10/29 11:25:49;;;;;;;;;;;;;;;18.85;44.34;98713.06;5006454;28;19925;-76
2021/10/29 11:28:15;;;;;;;;;;;;;;;18.63;44.46;98717.88;5024630;28;19922;-78
2021/10/29 11:30:41;;;;;;;;;;;;;;;18.61;44.50;98719.03;5006283;28;19921;-76
2021/10/29 11:33:07;;;;;;;;;;;;;;;18.50;44.34;98709.41;5006096;28;19924;-75
2021/10/29 11:35:32;;;;;;;;;;;;;;;18.53;44.59;98718.94;5043143;28;19928;-76
2021/10/29 11:37:58;;;;;;;;;;;;;;;18.52;44.89;98710.09;5026846;28;19921;-76
2021/10/29 11:40:24;;;;;;;;;;;;;;;18.59;44.71;98705.00;5034879;28;19921;-75
2021/10/29 11:42:55;;;;;;;;;;;;;;;18.64;44.46;98711.53;5035697;28;19920;-74
2021/10/29 11:45:39;;;;;;;;;;;;;;;18.63;44.56;98709.88;5026413;28;19925;-79
2021/10/29 11:48:04;;;;;;;;;;;;;;;18.74;44.66;98703.44;5042562;28;20461;-76
2021/10/29 11:50:29;;;;;;;;;;;;;;;18.61;44.88;98705.69;5043644;28;19995;-78
2021/10/29 11:52:55;;;;;;;;;;;;;;;18.66;44.78;98704.22;5030153;28;19963;-77
2021/10/29 11:56:05;;;;;;;;;;;;;;;18.56;44.69;98700.81;5024377;28;19921;-78
2021/10/29 11:58:20;;;;;;;;;;;;;;;18.67;44.64;98692.53;5026486;28;19920;-76
2021/10/29 12:08:37;;;;;;;;;;;;;;;18.86;44.42;98670.19;5045266;28;19921;-77
2021/10/29 12:11:05;;;;;;;;;;;;;;;18.92;44.34;98659.88;5024382;28;20386;-77
2021/10/29 12:13:32;;;;;;;;;;;;;;;18.98;44.46;98654.75;5011178;28;20059;-79
2021/10/29 12:15:58;;;;;;;;;;;;;;;19.04;44.29;98653.28;5046014;28;19970;-79
2021/10/29 12:18:36;;;;;;;;;;;;;;;19.00;44.46;98642.09;5047534;28;19978;-79
2021/10/29 12:21:01;;;;;;;;;;;;;;;18.84;44.24;98650.00;5026032;28;20003;-78
2021/10/29 12:23:28;;;;;;;;;;;;;;;18.74;44.17;98649.22;5010416;28;20058;-78
2021/10/29 12:26:02;;;;;;;;;;;;;;;18.73;44.48;98642.19;5045102;28;19928;-78
2021/10/29 12:28:37;;;;;;;;;;;;;;;18.74;44.71;98649.22;5027305;28;19925;-77
2021/10/29 12:34:01;;;;;;;;;;;;;;;18.68;45.05;98637.34;5045726;28;20384;-76
2021/10/29 12:36:52;;;;;;;;;;;;;;;18.56;45.12;98634.06;5050246;28;20397;-74
2021/10/29 13:03:11;;;;;;;;;;;;;;;18.51;45.75;98614.16;5032215;28;19971;-71
2021/10/29 13:05:37;;;;;;;;;;;;;;;18.56;45.69;98607.38;5032806;28;19929;-71
2021/10/29 13:08:21;;;;;;;;;;;;;;;18.52;45.70;98597.16;5032838;28;20000;-72
2021/10/29 13:10:50;;;;;;;;;;;;;;;18.53;45.76;98605.00;5032166;28;19971;-73
2021/10/29 13:13:21;;;;;;;;;;;;;;;18.55;46.13;98597.69;5032927;28;19941;-71
2021/10/29 13:15:48;;;;;;;;;;;;;;;18.59;46.25;98593.72;5032973;28;20044;-72
2021/10/29 13:18:18;;;;;;;;;;;;;;;18.56;46.40;98599.38;5032096;28;19924;-72
2021/10/29 13:28:30;;;;;;;;;;;;;;;18.54;46.37;98595.19;5032941;28;19917;-72
2021/10/29 13:36:56;;;;;;;;;;;;;;;18.43;47.05;98589.09;5033979;28;19925;-72
2021/10/29 14:04:06;;;;;;;;;;;;;;;18.15;47.69;98568.84;5032110;28;19921;-73
2021/10/29 14:30:30;;;;;;;;;;;;;;;17.83;48.74;98553.41;5048136;28;19925;-73
2021/10/29 14:33:13;;;;;;;;;;;;;;;17.83;48.87;98556.06;5030176;28;19998;-72
2021/10/29 14:35:42;;;;;;;;;;;;;;;17.82;49.16;98560.56;5031898;28;19917;-73
2021/10/29 14:43:28;;;;;;;;;;;;;;;17.68;49.27;98566.38;5032246;28;20033;-74
2021/10/29 14:51:56;;;;;;;;;;;;;;;17.56;49.79;98563.91;5026379;28;19939;-72
2021/10/29 15:16:22;;;;;;;;;;;;;;;17.35;50.74;98563.31;5029045;28;19948;-73
2021/10/29 15:27:12;;;;;;;;;;;;;;;17.15;51.59;98555.47;5030443;28;19925;-73
2021/10/29 15:45:44;;;;;;;;;;;;;;;16.83;52.67;98571.81;5030212;28;19975;-71
2021/10/29 15:48:22;;;;;;;;;;;;;;;16.80;53.16;98571.28;5030825;28;19925;-72
2021/10/29 15:50:48;;;;;;;;;;;;;;;16.75;53.24;98567.19;5013736;28;19924;-73
2021/10/29 15:53:14;;;;;;;;;;;;;;;16.73;53.41;98574.47;5029330;28;19921;-72
2021/10/29 15:55:46;;;;;;;;;;;;;;;16.70;53.60;98581.94;5028261;28;19939;-73
2021/10/29 16:00:57;;;;;;;;;;;;;;;16.66;53.93;98584.06;5033072;28;20004;-73
2021/10/29 16:03:41;;;;;;;;;;;;;;;16.67;54.00;98587.53;5031200;28;19924;-72
2021/10/29 16:17:03;;;;;;;;;;;;;;;16.70;54.01;98581.94;5048250;28;19931;-72
2021/10/29 16:17:22;;;;;;;;;;;;;;;16.62;54.57;98585.31;5049004;28;20395;-73
2021/10/29 16:19:47;;;;;;;;;;;;;;;16.59;54.61;98582.94;5048999;28;19913;-72
2021/10/29 16:22:25;;;;;;;;;;;;;;;16.52;54.99;98582.66;5047968;28;19917;-72
2021/10/29 16:25:07;;;;;;;;;;;;;;;16.46;55.17;98577.91;5046854;28;19921;-74
2021/10/29 16:30:06;;;;;;;;;;;;;;;16.37;55.21;98581.44;5048667;28;19956;-73
2021/10/29 16:35:16;;;;;;;;;;;;;;;16.39;55.56;98583.94;5049615;28;19917;-72
2021/10/29 16:37:42;;;;;;;;;;;;;;;16.40;55.71;98594.44;5050330;28;20296;-73
2021/10/29 16:40:07;;;;;;;;;;;;;;;16.40;55.71;98591.78;5048986;28;19928;-73
2021/10/29 16:42:33;;;;;;;;;;;;;;;16.41;55.49;98595.28;5048386;28;20402;-73
2021/10/29 16:44:58;;;;;;;;;;;;;;;16.43;55.58;98593.31;5048900;28;19928;-72
2021/10/29 16:47:24;;;;;;;;;;;;;;;16.42;55.74;98596.97;5031541;28;19926;-72
2021/10/29 16:49:49;;;;;;;;;;;;;;;16.39;55.68;98598.09;5049254;28;19917;-72
2021/10/29 16:52:14;;;;;;;;;;;;;;;16.41;55.63;98595.28;5048765;28;19921;-72
2021/10/29 16:54:40;;;;;;;;;;;;;;;16.44;55.61;98598.50;5049681;28;19916;-72
2021/10/29 16:57:05;;;;;;;;;;;;;;;16.45;55.66;98594.03;5049775;28;20006;-72
2021/10/29 16:59:30;;;;;;;;;;;;;;;16.41;55.91;98601.44;5035002;28;19970;-73
2021/10/29 17:01:56;;;;;;;;;;;;;;;16.39;55.68;98587.47;5051576;28;19955;-74
2021/10/29 17:04:21;;;;;;;;;;;;;;;16.41;55.62;98592.63;5053862;28;19925;-72
2021/10/29 17:06:46;;;;;;;;;;;;;;;16.41;55.84;98588.13;5052597;28;19927;-73
2021/10/29 17:09:12;;;;;;;;;;;;;;;16.42;55.83;98599.63;5053456;28;19917;-73
2021/10/29 17:11:37;;;;;;;;;;;;;;;16.41;55.75;98593.44;5051168;28;19929;-73
2021/10/29 17:14:03;;;;;;;;;;;;;;;16.39;56.46;98595.44;5033135;28;19924;-72
2021/10/29 17:16:28;;;;;;;;;;;;;;;16.38;55.99;98604.38;5049262;28;19966;-73
2021/10/29 17:18:53;;;;;;;;;;;;;;;16.38;55.90;98599.06;5030710;28;19935;-73
2021/10/29 17:21:18;;;;;;;;;;;;;;;16.41;56.08;98603.25;5030993;28;19924;-72
2021/10/29 17:23:44;;;;;;;;;;;;;;;16.43;56.37;98614.59;5051638;28;20289;-72
2021/10/29 17:26:09;;;;;;;;;;;;;;;16.40;56.32;98621.03;5052529;28;20280;-72
2021/10/29 17:28:34;;;;;;;;;;;;;;;16.42;56.03;98631.56;5052247;28;19970;-71
2021/10/29 17:31:00;;;;;;;;;;;;;;;16.43;56.76;98638.53;5051221;28;19966;-72
2021/10/29 17:33:25;;;;;;;;;;;;;;;16.35;58.47;98652.56;5052343;28;19971;-72
2021/10/29 17:35:50;;;;;;;;;;;;;;;16.19;59.28;98658.41;5052089;28;19917;-72
2021/10/29 17:38:16;;;;;;;;;;;;;;;16.11;60.86;98666.25;5052103;28;19921;-72